createdAt,value
2023-05-09T00:00:13.174Z,9.50
2023-05-09T00:03:22.335Z,4.00
2023-05-09T00:06:28.081Z,6.00
2023-05-09T00:09:31.562Z,7.00
2023-05-09T00:12:37.188Z,10.00
2023-05-09T00:15:40.896Z,9.75
2023-05-09T00:18:44.734Z,7.00
2023-05-09T00:21:48.437Z,7.50
2023-05-09T00:24:52.635Z,6.50
2023-05-09T00:27:57.866Z,13.00
2023-05-09T00:31:01.694Z,15.50
2023-05-09T00:34:05.287Z,9.50
2023-05-09T00:37:08.874Z,12.00
2023-05-09T00:40:15.024Z,13.00
2023-05-09T00:43:22.764Z,10.00
2023-05-09T00:46:26.836Z,14.00
2023-05-09T00:49:31.185Z,13.50
2023-05-09T00:52:35.900Z,12.25
2023-05-09T00:55:40.091Z,16.25
2023-05-09T00:58:45.594Z,14.00
2023-05-09T01:01:49.360Z,13.75
2023-05-09T01:04:53.486Z,8.00
2023-05-09T01:11:37.698Z,15.00
2023-05-09T01:14:52.949Z,11.00
2023-05-09T01:18:01.370Z,10.75
2023-05-09T01:21:11.741Z,7.00
2023-05-09T01:24:41.336Z,15.25
2023-05-09T01:27:55.108Z,12.00
2023-05-09T01:31:00.859Z,12.25
2023-05-09T01:34:07.717Z,14.00
2023-05-09T01:37:14.447Z,16.00
2023-05-09T01:40:21.585Z,7.50
2023-05-09T01:43:29.180Z,12.50
2023-05-09T01:46:35.494Z,10.00
2023-05-09T01:49:41.386Z,11.50
2023-05-09T01:52:48.670Z,15.00
2023-05-09T01:55:53.266Z,12.50
2023-05-09T01:58:59.262Z,10.00
2023-05-09T02:02:05.212Z,14.00
2023-05-09T02:05:15.805Z,9.25
2023-05-09T02:08:22.346Z,12.75
2023-05-09T02:11:25.982Z,12.50
2023-05-09T02:14:33.070Z,8.75
2023-05-09T02:17:38.186Z,10.75
2023-05-09T02:20:41.697Z,13.00
2023-05-09T02:23:46.945Z,14.00
2023-05-09T02:26:50.884Z,14.50
2023-05-09T02:29:58.492Z,12.00
2023-05-09T02:33:11.297Z,10.50
2023-05-09T02:36:17.796Z,13.75
2023-05-09T02:39:21.385Z,11.50
2023-05-09T02:42:30.174Z,12.00
2023-05-09T02:45:37.593Z,15.50
2023-05-09T02:48:42.798Z,14.00
2023-05-09T02:51:46.270Z,12.50
2023-05-09T02:54:49.902Z,9.75
2023-05-09T02:58:05.271Z,18.50
2023-05-09T03:01:16.244Z,13.00
2023-05-09T03:04:21.242Z,11.75
2023-05-09T03:07:24.804Z,15.75
2023-05-09T03:10:28.266Z,17.75
2023-05-09T03:13:31.970Z,12.50
2023-05-09T03:16:35.801Z,15.25
2023-05-09T03:19:41.932Z,7.25
2023-05-09T03:22:45.494Z,15.75
2023-05-09T03:25:49.290Z,21.25
2023-05-09T03:28:53.384Z,10.25
2023-05-09T03:31:57.069Z,15.00
2023-05-09T03:35:02.232Z,17.50
2023-05-09T03:38:06.034Z,19.00
2023-05-09T03:41:10.114Z,15.75
2023-05-09T03:44:14.833Z,13.75
2023-05-09T03:47:18.524Z,15.50
2023-05-09T03:50:23.399Z,15.50
2023-05-09T03:53:28.112Z,13.00
2023-05-09T03:56:32.030Z,15.25
2023-05-09T03:59:35.868Z,17.50
2023-05-09T04:02:40.014Z,7.50
2023-05-09T04:05:45.369Z,14.50
2023-05-09T04:08:56.738Z,15.75
2023-05-09T04:12:00.425Z,17.50
2023-05-09T04:15:04.121Z,13.50
2023-05-09T04:18:08.548Z,16.50
2023-05-09T04:21:13.940Z,9.50
2023-05-09T04:24:18.607Z,8.00
2023-05-09T04:27:24.752Z,7.00
2023-05-09T04:30:28.809Z,17.75
2023-05-09T04:33:33.488Z,15.00
2023-05-09T04:36:40.642Z,16.50
2023-05-09T04:39:44.636Z,11.00
2023-05-09T04:42:55.055Z,6.00
2023-05-09T04:46:02.684Z,9.25
2023-05-09T04:49:06.591Z,16.00
2023-05-09T04:52:11.571Z,13.00
2023-05-09T04:55:15.763Z,12.25
2023-05-09T04:58:22.620Z,7.50
2023-05-09T05:01:27.021Z,11.50
2023-05-09T05:04:32.772Z,13.00
2023-05-09T05:07:38.808Z,15.25
2023-05-09T05:10:42.608Z,13.75
2023-05-09T05:13:48.959Z,14.50
2023-05-09T05:16:54.747Z,12.75
2023-05-09T05:20:00.221Z,11.00
2023-05-09T05:23:07.193Z,8.50
2023-05-09T05:26:11.006Z,12.00
2023-05-09T05:29:15.103Z,11.00
2023-05-09T05:32:18.883Z,11.25
2023-05-09T05:35:23.485Z,10.25
2023-05-09T05:38:29.643Z,3.00
2023-05-09T05:41:35.346Z,9.25
2023-05-09T05:44:41.389Z,9.25
2023-05-09T05:47:45.799Z,13.00
2023-05-09T05:50:49.688Z,9.25
2023-05-09T05:53:57.669Z,4.50
2023-05-09T05:57:02.505Z,10.00
2023-05-09T06:00:09.542Z,11.50
2023-05-09T06:03:17.900Z,9.50
2023-05-09T06:06:28.566Z,9.50
2023-05-09T06:09:33.985Z,9.00
2023-05-09T06:12:37.407Z,9.25
2023-05-09T06:15:41.224Z,9.25
2023-05-09T06:18:45.274Z,12.00
2023-05-09T06:21:49.161Z,7.00
2023-05-09T06:24:54.308Z,12.50
2023-05-09T06:27:58.181Z,9.00
2023-05-09T06:31:02.231Z,8.50
2023-05-09T06:34:06.428Z,6.75
2023-05-09T06:37:10.218Z,9.75
2023-05-09T06:40:15.514Z,11.50
2023-05-09T06:43:19.440Z,4.00
2023-05-09T06:46:23.388Z,14.00
2023-05-09T06:49:27.499Z,7.00
2023-05-09T06:52:31.370Z,9.50
2023-05-09T06:55:36.518Z,7.50
2023-05-09T06:58:40.356Z,9.25
2023-05-09T07:01:43.932Z,13.25
2023-05-09T07:04:47.303Z,7.50
2023-05-09T07:07:51.215Z,7.25
2023-05-09T07:10:56.484Z,7.00
2023-05-09T07:14:00.589Z,5.50
2023-05-09T07:17:21.309Z,7.00
2023-05-09T07:20:26.567Z,6.00
2023-05-09T07:23:29.991Z,7.00
2023-05-09T07:26:36.890Z,6.50
2023-05-09T07:29:40.442Z,8.50
2023-05-09T07:32:44.042Z,4.75
2023-05-09T07:35:47.593Z,6.00
2023-05-09T07:38:53.024Z,4.00
2023-05-09T07:41:57.930Z,6.75
2023-05-09T07:45:01.617Z,1.50
2023-05-09T07:48:05.672Z,9.50
2023-05-09T07:51:09.421Z,8.00
2023-05-09T07:54:12.988Z,7.00
2023-05-09T07:57:18.366Z,4.67
2023-05-09T08:00:24.116Z,3.67
2023-05-09T08:03:28.226Z,6.00
2023-05-09T08:06:31.943Z,4.00
2023-05-09T08:09:35.638Z,6.00
2023-05-09T08:12:41.012Z,6.00
2023-05-09T08:15:44.587Z,7.00
2023-05-09T08:18:48.465Z,6.00
2023-05-09T08:21:57.812Z,2.33
2023-05-09T08:25:01.399Z,7.67
2023-05-09T08:28:07.101Z,6.00
2023-05-09T08:31:11.076Z,5.33
2023-05-09T08:34:14.672Z,6.33
2023-05-09T08:37:18.381Z,5.33
2023-05-09T08:40:22.518Z,6.33
2023-05-09T08:43:30.046Z,5.33
2023-05-09T08:46:46.961Z,6.00
2023-05-09T08:49:52.927Z,4.67
2023-05-09T08:52:56.751Z,4.00
2023-05-09T08:56:01.405Z,4.00
2023-05-09T08:59:07.198Z,8.33
2023-05-09T09:02:14.739Z,6.00
2023-05-09T09:05:40.129Z,7.00
2023-05-09T09:08:47.268Z,8.67
2023-05-09T09:11:51.013Z,9.00
2023-05-09T09:14:58.240Z,7.33
2023-05-09T09:18:08.146Z,6.67
2023-05-09T09:21:14.575Z,5.00
2023-05-09T09:24:23.692Z,3.33
2023-05-09T09:27:27.427Z,5.33
2023-05-09T09:30:32.706Z,6.33
2023-05-09T09:33:37.654Z,5.33
2023-05-09T09:36:41.882Z,4.33
2023-05-09T09:39:55.680Z,2.33
2023-05-09T09:43:01.813Z,5.33
2023-05-09T09:46:07.227Z,1.00
2023-05-09T09:49:11.453Z,7.00
2023-05-09T09:52:24.904Z,0.00
2023-05-09T09:55:30.341Z,5.00
2023-05-09T09:58:35.465Z,5.00
2023-05-09T10:01:55.886Z,7.00
2023-05-09T10:05:08.138Z,4.00
2023-05-09T10:08:11.745Z,5.00
2023-05-09T10:11:16.656Z,4.67
2023-05-09T10:14:21.229Z,4.67
2023-05-09T10:17:27.616Z,4.00
2023-05-09T10:20:32.006Z,2.67
2023-05-09T10:23:39.815Z,2.00
2023-05-09T10:26:47.816Z,5.67
2023-05-09T10:29:58.921Z,2.00
2023-05-09T10:33:06.035Z,4.00
2023-05-09T10:36:10.912Z,2.00
2023-05-09T10:39:15.191Z,4.00
2023-05-09T10:42:18.894Z,2.67
2023-05-09T10:45:24.981Z,6.33
2023-05-09T10:48:30.319Z,2.00
2023-05-09T10:51:34.831Z,2.00
2023-05-09T10:54:38.866Z,4.67
2023-05-09T10:57:42.449Z,4.00
2023-05-09T11:00:46.847Z,1.00
2023-05-09T11:04:00.162Z,4.33
2023-05-09T11:07:03.888Z,2.00
2023-05-09T11:10:11.663Z,0.00
2023-05-09T11:13:19.231Z,2.00
2023-05-09T11:16:22.790Z,4.00
2023-05-09T11:19:38.974Z,2.00
2023-05-09T11:22:44.710Z,4.00
2023-05-09T11:25:49.016Z,2.00
2023-05-09T11:28:56.906Z,1.00
2023-05-09T11:32:07.950Z,3.33
2023-05-09T11:35:15.649Z,1.00
2023-05-09T11:38:23.185Z,2.67
2023-05-09T11:41:27.662Z,1.00
2023-05-09T11:44:33.804Z,5.00
2023-05-09T11:47:38.271Z,4.00
2023-05-09T11:50:43.190Z,1.67
2023-05-09T11:53:47.158Z,2.33
2023-05-09T11:56:50.896Z,0.00
2023-05-09T11:59:54.599Z,2.00
2023-05-09T12:02:58.167Z,4.00
2023-05-09T12:06:03.039Z,1.00
2023-05-09T12:09:06.838Z,1.00
2023-05-09T12:12:12.497Z,4.00
2023-05-09T12:15:17.030Z,2.00
2023-05-09T12:18:20.970Z,1.67
2023-05-09T12:21:25.749Z,4.33
2023-05-09T12:24:30.807Z,4.33
2023-05-09T12:27:36.019Z,1.00
2023-05-09T12:30:39.860Z,4.00
2023-05-09T12:33:43.507Z,2.00
2023-05-09T12:36:51.085Z,2.00
2023-05-09T12:40:05.156Z,4.33
2023-05-09T12:43:08.944Z,2.00
2023-05-09T12:46:12.449Z,2.00
2023-05-09T12:49:21.894Z,4.00
2023-05-09T12:52:27.374Z,2.00
2023-05-09T12:55:31.900Z,3.33
2023-05-09T12:58:35.659Z,2.67
2023-05-09T13:01:39.069Z,1.00
2023-05-09T13:04:42.599Z,4.33
2023-05-09T13:07:49.544Z,2.00
2023-05-09T13:11:00.709Z,4.33
2023-05-09T13:14:11.830Z,2.00
2023-05-09T13:17:15.924Z,2.67
2023-05-09T13:20:20.121Z,3.33
2023-05-09T13:23:25.037Z,5.00
2023-05-09T13:26:28.677Z,1.00
2023-05-09T13:29:32.341Z,1.67
2023-05-09T13:32:36.797Z,3.00
2023-05-09T13:35:40.761Z,2.00
2023-05-09T13:38:45.899Z,0.00
2023-05-09T13:41:51.415Z,3.33
2023-05-09T13:44:55.778Z,3.00
2023-05-09T13:47:59.373Z,3.00
2023-05-09T13:51:03.652Z,2.00
2023-05-09T13:54:12.790Z,2.00
2023-05-09T13:57:16.531Z,3.00
2023-05-09T14:00:23.479Z,3.00
2023-05-09T14:03:27.638Z,5.33
2023-05-09T14:06:31.175Z,6.33
2023-05-09T14:09:42.417Z,2.00
2023-05-09T14:12:47.300Z,3.00
2023-05-09T14:15:53.334Z,2.00
2023-05-09T14:18:57.786Z,3.00
2023-05-09T14:22:01.168Z,1.00
2023-05-09T14:25:06.541Z,2.00
2023-05-09T14:28:10.892Z,3.00
2023-05-09T14:31:15.354Z,6.00
2023-05-09T14:34:20.463Z,5.00
2023-05-09T14:37:24.864Z,5.00
2023-05-09T14:40:32.224Z,2.33
2023-05-09T14:43:36.102Z,5.00
2023-05-09T14:46:39.840Z,5.00
2023-05-09T14:49:43.512Z,2.67
2023-05-09T14:52:47.007Z,5.67
2023-05-09T14:55:52.318Z,3.00
2023-05-09T14:58:55.972Z,3.33
2023-05-09T15:01:59.559Z,5.00
2023-05-09T15:05:03.980Z,3.33
2023-05-09T15:08:08.174Z,3.33
2023-05-09T15:11:13.416Z,7.33
2023-05-09T15:14:17.531Z,6.00
2023-05-09T15:17:21.208Z,5.67
2023-05-09T15:20:24.716Z,4.33
2023-05-09T15:23:29.120Z,2.67
2023-05-09T15:26:34.319Z,4.33
2023-05-09T15:29:37.870Z,5.67
2023-05-09T15:32:41.615Z,6.00
2023-05-09T15:35:45.595Z,6.67
2023-05-09T15:38:49.889Z,6.67
2023-05-09T15:41:54.819Z,4.33
2023-05-09T15:44:58.519Z,5.33
2023-05-09T15:48:02.143Z,5.00
2023-05-09T15:51:06.350Z,8.00
2023-05-09T15:54:10.589Z,2.00
2023-05-09T15:57:16.903Z,5.00
2023-05-09T16:00:20.704Z,8.00
2023-05-09T16:03:25.117Z,5.00
2023-05-09T16:06:29.601Z,5.67
2023-05-09T16:09:33.509Z,6.00
2023-05-09T16:12:38.931Z,8.00
2023-05-09T16:15:42.695Z,4.33
2023-05-09T16:18:46.314Z,6.33
2023-05-09T16:21:50.321Z,5.00
2023-05-09T16:24:54.545Z,4.00
2023-05-09T16:27:59.521Z,6.67
2023-05-09T16:31:04.986Z,5.00
2023-05-09T16:34:08.677Z,3.33
2023-05-09T16:37:12.577Z,7.33
2023-05-09T16:40:16.878Z,7.33
2023-05-09T16:43:22.259Z,4.67
2023-05-09T16:46:25.929Z,4.33
2023-05-09T16:49:29.737Z,6.33
2023-05-09T16:52:33.433Z,7.33
2023-05-09T16:55:37.553Z,7.00
2023-05-09T16:58:45.573Z,8.00
2023-05-09T17:01:49.563Z,4.67
2023-05-09T17:04:53.427Z,6.33
2023-05-09T17:07:57.255Z,4.67
2023-05-09T17:11:00.985Z,5.00
2023-05-09T17:14:06.260Z,4.33
2023-05-09T17:17:13.142Z,3.33
2023-05-09T17:20:20.183Z,5.67
2023-05-09T17:23:23.845Z,7.00
2023-05-09T17:26:28.036Z,7.00
2023-05-09T17:29:33.271Z,8.67
2023-05-09T17:32:36.932Z,7.00
2023-05-09T17:35:40.733Z,5.00
2023-05-09T17:38:44.336Z,10.33
2023-05-09T17:41:48.117Z,7.33
2023-05-09T17:44:53.383Z,6.00
2023-05-09T17:47:57.117Z,10.00
2023-05-09T17:51:01.028Z,5.00
2023-05-09T17:54:05.740Z,5.67
2023-05-09T17:57:09.628Z,8.00
2023-05-09T18:00:16.608Z,4.33
2023-05-09T18:03:20.848Z,4.00
2023-05-09T18:06:24.588Z,4.00
2023-05-09T18:09:28.321Z,6.00
2023-05-09T18:12:36.893Z,6.33
2023-05-09T18:15:42.375Z,7.00
2023-05-09T18:18:46.065Z,9.00
2023-05-09T18:21:53.207Z,7.00
2023-05-09T18:24:57.053Z,7.00
2023-05-09T18:28:00.792Z,9.00
2023-05-09T18:31:06.425Z,6.50
2023-05-09T18:34:10.467Z,8.33
2023-05-09T18:37:14.401Z,7.00
2023-05-09T18:40:18.589Z,6.50
2023-05-09T18:43:22.453Z,6.75
2023-05-09T18:46:28.075Z,10.00
2023-05-09T18:49:31.841Z,8.50
2023-05-09T18:52:35.714Z,6.50
2023-05-09T18:55:39.257Z,6.00
2023-05-09T18:58:42.841Z,6.25
2023-05-09T19:01:47.807Z,3.00
2023-05-09T19:04:51.796Z,7.00
2023-05-09T19:07:55.344Z,9.25
2023-05-09T19:10:58.961Z,9.25
2023-05-09T19:14:02.626Z,3.50
2023-05-09T19:17:08.165Z,9.25
2023-05-09T19:20:13.901Z,10.00
2023-05-09T19:23:17.734Z,6.00
2023-05-09T19:26:22.190Z,6.25
2023-05-09T19:29:25.802Z,4.50
2023-05-09T19:32:30.863Z,7.50
2023-05-09T19:35:34.421Z,6.25
2023-05-09T19:38:37.989Z,9.00
2023-05-09T19:41:41.890Z,7.00
2023-05-09T19:44:46.720Z,9.50
2023-05-09T19:47:52.082Z,7.00
2023-05-09T19:50:58.345Z,5.50
2023-05-09T19:54:01.874Z,6.00
2023-05-09T19:57:06.950Z,10.50
2023-05-09T20:00:11.550Z,6.25
2023-05-09T20:03:17.665Z,5.00
2023-05-09T20:06:21.298Z,6.50
2023-05-09T20:09:25.286Z,6.00
2023-05-09T20:12:30.240Z,3.00
2023-05-09T20:15:35.042Z,7.50
2023-05-09T20:18:40.286Z,8.25
2023-05-09T20:21:43.877Z,9.25
2023-05-09T20:24:47.331Z,6.75
2023-05-09T20:27:51.030Z,8.50
2023-05-09T20:30:54.614Z,4.50
2023-05-09T20:34:00.454Z,6.25
2023-05-09T20:37:04.299Z,6.75
2023-05-09T20:40:09.350Z,7.50
2023-05-09T20:43:12.885Z,9.50
2023-05-09T20:46:16.515Z,10.00
2023-05-09T20:49:21.558Z,9.75
2023-05-09T20:52:24.947Z,6.50
2023-05-09T20:55:28.415Z,6.00
2023-05-09T20:58:34.820Z,11.50
2023-05-09T21:01:40.313Z,12.25
2023-05-09T21:04:45.297Z,4.00
2023-05-09T21:07:48.861Z,4.50
2023-05-09T21:10:54.441Z,7.50
2023-05-09T21:13:57.950Z,10.25
2023-05-09T21:17:01.611Z,6.25
2023-05-09T21:20:07.956Z,4.00
2023-05-09T21:23:11.876Z,0.50
2023-05-09T21:26:15.486Z,3.75
2023-05-09T21:29:18.916Z,10.00
2023-05-09T21:32:22.358Z,7.00
2023-05-09T21:35:27.450Z,10.75
2023-05-09T21:38:31.113Z,12.50
2023-05-09T21:41:34.683Z,9.50
2023-05-09T21:44:38.693Z,9.75
2023-05-09T21:47:42.598Z,4.00
2023-05-09T21:50:47.707Z,11.00
2023-05-09T21:53:51.180Z,6.50
2023-05-09T21:56:54.780Z,9.75
2023-05-09T22:00:01.709Z,10.00
2023-05-09T22:03:34.536Z,8.50
2023-05-09T22:06:41.856Z,8.25
2023-05-09T22:09:45.411Z,10.00
2023-05-09T22:12:49.069Z,5.00
2023-05-09T22:15:52.690Z,4.50
2023-05-09T22:18:56.211Z,9.50
2023-05-09T22:22:01.181Z,5.50
2023-05-09T22:25:05.491Z,9.75
2023-05-09T22:28:09.280Z,10.75
2023-05-09T22:31:12.823Z,9.75
2023-05-09T22:34:16.761Z,11.00
2023-05-09T22:37:21.786Z,13.00
2023-05-09T22:40:26.423Z,9.50
2023-05-09T22:43:38.678Z,7.50
2023-05-09T22:46:43.217Z,6.50
2023-05-09T22:49:47.006Z,6.25
2023-05-09T22:52:51.832Z,8.00
2023-05-09T22:55:55.919Z,7.50
2023-05-09T22:58:59.459Z,4.00
2023-05-09T23:02:03.084Z,8.50
2023-05-09T23:05:08.929Z,13.00
2023-05-09T23:08:13.902Z,10.00
2023-05-09T23:11:17.546Z,11.50
2023-05-09T23:14:21.080Z,12.25
2023-05-09T23:17:24.618Z,8.50
2023-05-09T23:20:28.307Z,11.75
2023-05-09T23:23:33.393Z,4.00
2023-05-09T23:26:37.181Z,8.75
2023-05-09T23:29:40.717Z,5.00
2023-05-09T23:32:44.455Z,9.25
2023-05-09T23:35:48.035Z,9.00
2023-05-09T23:38:52.863Z,9.25
2023-05-09T23:41:56.580Z,10.00
2023-05-09T23:45:00.549Z,10.50
2023-05-09T23:48:04.083Z,7.00
2023-05-09T23:51:07.806Z,12.75
2023-05-09T23:54:12.610Z,12.00
2023-05-09T23:57:16.163Z,10.50
